sensor_id;sensor_type;location;lat;lon;timestamp;P1;durP1;ratioP1;P2;durP2;ratioP2
16314;SDS011;8266;52.150;4.768;2023-04-24T00:01:34;0.85;;;0.40;;
16314;SDS011;8266;52.150;4.768;2023-04-24T00:04:02;1.35;;;0.50;;
16314;SDS011;8266;52.150;4.768;2023-04-24T00:06:29;1.58;;;0.70;;
16314;SDS011;8266;52.150;4.768;2023-04-24T00:08:58;1.05;;;0.57;;
16314;SDS011;8266;52.150;4.768;2023-04-24T00:11:25;0.98;;;0.70;;
16314;SDS011;8266;52.150;4.768;2023-04-24T00:13:54;0.63;;;0.50;;
16314;SDS011;8266;52.150;4.768;2023-04-24T00:16:21;2.40;;;0.70;;
16314;SDS011;8266;52.150;4.768;2023-04-24T00:18:48;5.85;;;0.90;;
16314;SDS011;8266;52.150;4.768;2023-04-24T00:21:17;1.00;;;0.63;;
16314;SDS011;8266;52.150;4.768;2023-04-24T00:23:45;2.30;;;0.90;;
16314;SDS011;8266;52.150;4.768;2023-04-24T00:26:13;1.85;;;0.57;;
16314;SDS011;8266;52.150;4.768;2023-04-24T00:28:40;1.00;;;0.60;;
16314;SDS011;8266;52.150;4.768;2023-04-24T00:31:08;0.55;;;0.35;;
16314;SDS011;8266;52.150;4.768;2023-04-24T00:33:35;0.63;;;0.50;;
16314;SDS011;8266;52.150;4.768;2023-04-24T00:36:02;1.05;;;0.70;;
16314;SDS011;8266;52.150;4.768;2023-04-24T00:38:30;0.65;;;0.38;;
16314;SDS011;8266;52.150;4.768;2023-04-24T00:40:56;1.15;;;0.55;;
16314;SDS011;8266;52.150;4.768;2023-04-24T00:43:24;0.85;;;0.43;;
16314;SDS011;8266;52.150;4.768;2023-04-24T00:45:51;0.50;;;0.50;;
16314;SDS011;8266;52.150;4.768;2023-04-24T00:48:19;1.50;;;0.47;;
16314;SDS011;8266;52.150;4.768;2023-04-24T00:50:47;0.50;;;0.50;;
16314;SDS011;8266;52.150;4.768;2023-04-24T00:53:14;1.45;;;0.63;;
16314;SDS011;8266;52.150;4.768;2023-04-24T00:55:41;0.40;;;0.40;;
16314;SDS011;8266;52.150;4.768;2023-04-24T00:58:08;0.82;;;0.47;;
16314;SDS011;8266;52.150;4.768;2023-04-24T01:00:36;1.20;;;0.50;;
16314;SDS011;8266;52.150;4.768;2023-04-24T01:05:33;1.25;;;0.45;;
16314;SDS011;8266;52.150;4.768;2023-04-24T01:08:00;1.15;;;0.50;;
16314;SDS011;8266;52.150;4.768;2023-04-24T01:10:29;2.47;;;0.75;;
16314;SDS011;8266;52.150;4.768;2023-04-24T01:12:57;1.50;;;0.50;;
16314;SDS011;8266;52.150;4.768;2023-04-24T01:15:24;1.25;;;0.60;;
16314;SDS011;8266;52.150;4.768;2023-04-24T01:17:51;1.92;;;0.52;;
16314;SDS011;8266;52.150;4.768;2023-04-24T01:20:18;0.90;;;0.65;;
16314;SDS011;8266;52.150;4.768;2023-04-24T01:22:47;2.78;;;0.60;;
16314;SDS011;8266;52.150;4.768;2023-04-24T01:25:14;1.02;;;0.65;;
16314;SDS011;8266;52.150;4.768;2023-04-24T01:27:41;1.73;;;0.73;;
16314;SDS011;8266;52.150;4.768;2023-04-24T01:30:09;2.25;;;0.57;;
16314;SDS011;8266;52.150;4.768;2023-04-24T01:32:37;0.80;;;0.65;;
16314;SDS011;8266;52.150;4.768;2023-04-24T01:35:04;1.70;;;0.77;;
16314;SDS011;8266;52.150;4.768;2023-04-24T01:37:32;1.83;;;0.90;;
16314;SDS011;8266;52.150;4.768;2023-04-24T01:40:03;1.25;;;0.70;;
16314;SDS011;8266;52.150;4.768;2023-04-24T01:42:31;1.10;;;0.60;;
16314;SDS011;8266;52.150;4.768;2023-04-24T01:44:58;1.08;;;0.85;;
16314;SDS011;8266;52.150;4.768;2023-04-24T01:47:26;1.92;;;0.80;;
16314;SDS011;8266;52.150;4.768;2023-04-24T01:49:54;1.67;;;0.80;;
16314;SDS011;8266;52.150;4.768;2023-04-24T01:52:21;0.52;;;0.40;;
16314;SDS011;8266;52.150;4.768;2023-04-24T01:54:48;2.05;;;0.82;;
16314;SDS011;8266;52.150;4.768;2023-04-24T01:57:17;1.48;;;0.70;;
16314;SDS011;8266;52.150;4.768;2023-04-24T01:59:44;1.23;;;0.60;;
16314;SDS011;8266;52.150;4.768;2023-04-24T02:02:10;1.05;;;0.70;;
16314;SDS011;8266;52.150;4.768;2023-04-24T02:04:37;1.50;;;0.75;;
16314;SDS011;8266;52.150;4.768;2023-04-24T02:07:05;0.80;;;0.63;;
16314;SDS011;8266;52.150;4.768;2023-04-24T02:09:33;1.17;;;0.60;;
16314;SDS011;8266;52.150;4.768;2023-04-24T02:11:59;0.77;;;0.60;;
16314;SDS011;8266;52.150;4.768;2023-04-24T02:14:28;1.30;;;0.80;;
16314;SDS011;8266;52.150;4.768;2023-04-24T02:16:55;2.15;;;0.82;;
16314;SDS011;8266;52.150;4.768;2023-04-24T02:19:22;1.55;;;0.80;;
16314;SDS011;8266;52.150;4.768;2023-04-24T02:21:49;1.40;;;1.00;;
16314;SDS011;8266;52.150;4.768;2023-04-24T02:24:16;1.17;;;0.80;;
16314;SDS011;8266;52.150;4.768;2023-04-24T02:26:43;1.63;;;0.80;;
16314;SDS011;8266;52.150;4.768;2023-04-24T02:29:10;0.90;;;0.90;;
16314;SDS011;8266;52.150;4.768;2023-04-24T02:31:39;1.25;;;1.02;;
16314;SDS011;8266;52.150;4.768;2023-04-24T02:34:06;0.93;;;0.80;;
16314;SDS011;8266;52.150;4.768;2023-04-24T02:36:33;0.88;;;0.88;;
16314;SDS011;8266;52.150;4.768;2023-04-24T02:39:00;1.42;;;0.93;;
16314;SDS011;8266;52.150;4.768;2023-04-24T02:41:27;1.73;;;0.90;;
16314;SDS011;8266;52.150;4.768;2023-04-24T02:43:56;0.95;;;0.95;;
16314;SDS011;8266;52.150;4.768;2023-04-24T02:46:24;1.33;;;1.15;;
16314;SDS011;8266;52.150;4.768;2023-04-24T02:48:52;1.73;;;1.05;;
16314;SDS011;8266;52.150;4.768;2023-04-24T02:51:19;1.65;;;1.10;;
16314;SDS011;8266;52.150;4.768;2023-04-24T02:53:46;7.18;;;1.42;;
16314;SDS011;8266;52.150;4.768;2023-04-24T02:56:13;1.25;;;1.15;;
16314;SDS011;8266;52.150;4.768;2023-04-24T02:58:40;1.30;;;1.20;;
16314;SDS011;8266;52.150;4.768;2023-04-24T03:01:07;1.10;;;0.98;;
16314;SDS011;8266;52.150;4.768;2023-04-24T03:03:35;3.25;;;1.33;;
16314;SDS011;8266;52.150;4.768;2023-04-24T03:06:03;1.23;;;1.13;;
16314;SDS011;8266;52.150;4.768;2023-04-24T03:08:31;1.65;;;1.35;;
16314;SDS011;8266;52.150;4.768;2023-04-24T03:10:58;1.55;;;1.40;;
16314;SDS011;8266;52.150;4.768;2023-04-24T03:13:25;1.42;;;1.20;;
16314;SDS011;8266;52.150;4.768;2023-04-24T03:15:52;1.15;;;1.08;;
16314;SDS011;8266;52.150;4.768;2023-04-24T03:18:19;1.85;;;1.20;;
16314;SDS011;8266;52.150;4.768;2023-04-24T03:20:46;1.58;;;1.42;;
16314;SDS011;8266;52.150;4.768;2023-04-24T03:23:14;1.25;;;1.15;;
16314;SDS011;8266;52.150;4.768;2023-04-24T03:25:41;1.45;;;1.35;;
16314;SDS011;8266;52.150;4.768;2023-04-24T03:28:08;1.50;;;1.40;;
16314;SDS011;8266;52.150;4.768;2023-04-24T03:30:35;2.30;;;1.70;;
16314;SDS011;8266;52.150;4.768;2023-04-24T03:33:02;1.42;;;1.30;;
16314;SDS011;8266;52.150;4.768;2023-04-24T03:35:29;2.92;;;1.33;;
16314;SDS011;8266;52.150;4.768;2023-04-24T03:37:56;1.95;;;1.42;;
16314;SDS011;8266;52.150;4.768;2023-04-24T03:40:25;1.50;;;1.40;;
16314;SDS011;8266;52.150;4.768;2023-04-24T03:42:53;1.45;;;1.35;;
16314;SDS011;8266;52.150;4.768;2023-04-24T03:45:20;1.67;;;1.42;;
16314;SDS011;8266;52.150;4.768;2023-04-24T03:47:47;1.45;;;1.35;;
16314;SDS011;8266;52.150;4.768;2023-04-24T03:50:14;1.83;;;1.50;;
16314;SDS011;8266;52.150;4.768;2023-04-24T03:52:41;2.60;;;1.50;;
16314;SDS011;8266;52.150;4.768;2023-04-24T03:55:08;1.73;;;1.30;;
16314;SDS011;8266;52.150;4.768;2023-04-24T03:57:39;1.30;;;1.20;;
16314;SDS011;8266;52.150;4.768;2023-04-24T04:00:06;3.78;;;1.30;;
16314;SDS011;8266;52.150;4.768;2023-04-24T04:02:35;1.08;;;1.02;;
16314;SDS011;8266;52.150;4.768;2023-04-24T04:05:02;0.95;;;0.95;;
16314;SDS011;8266;52.150;4.768;2023-04-24T04:07:29;1.35;;;1.05;;
16314;SDS011;8266;52.150;4.768;2023-04-24T04:09:56;1.05;;;0.88;;
16314;SDS011;8266;52.150;4.768;2023-04-24T04:12:23;0.73;;;0.73;;
16314;SDS011;8266;52.150;4.768;2023-04-24T04:14:51;0.70;;;0.70;;
16314;SDS011;8266;52.150;4.768;2023-04-24T04:17:18;1.25;;;0.93;;
16314;SDS011;8266;52.150;4.768;2023-04-24T04:19:45;1.27;;;0.85;;
16314;SDS011;8266;52.150;4.768;2023-04-24T04:22:12;1.70;;;1.10;;
16314;SDS011;8266;52.150;4.768;2023-04-24T04:24:39;1.08;;;0.98;;
16314;SDS011;8266;52.150;4.768;2023-04-24T04:27:06;0.70;;;0.70;;
16314;SDS011;8266;52.150;4.768;2023-04-24T04:29:33;1.05;;;0.70;;
16314;SDS011;8266;52.150;4.768;2023-04-24T04:32:02;0.50;;;0.45;;
16314;SDS011;8266;52.150;4.768;2023-04-24T04:34:29;0.80;;;0.60;;
16314;SDS011;8266;52.150;4.768;2023-04-24T04:36:56;0.50;;;0.50;;
16314;SDS011;8266;52.150;4.768;2023-04-24T04:39:26;0.73;;;0.40;;
16314;SDS011;8266;52.150;4.768;2023-04-24T04:41:54;0.88;;;0.38;;
16314;SDS011;8266;52.150;4.768;2023-04-24T04:44:22;0.85;;;0.52;;
16314;SDS011;8266;52.150;4.768;2023-04-24T04:46:49;1.35;;;0.70;;
16314;SDS011;8266;52.150;4.768;2023-04-24T04:49:19;0.50;;;0.50;;
16314;SDS011;8266;52.150;4.768;2023-04-24T04:51:47;0.95;;;0.70;;
16314;SDS011;8266;52.150;4.768;2023-04-24T04:54:14;1.55;;;0.80;;
16314;SDS011;8266;52.150;4.768;2023-04-24T04:56:41;1.00;;;0.90;;
16314;SDS011;8266;52.150;4.768;2023-04-24T04:59:08;0.82;;;0.60;;
16314;SDS011;8266;52.150;4.768;2023-04-24T05:01:36;1.13;;;0.60;;
16314;SDS011;8266;52.150;4.768;2023-04-24T05:04:03;0.65;;;0.50;;
16314;SDS011;8266;52.150;4.768;2023-04-24T05:06:31;0.75;;;0.38;;
16314;SDS011;8266;52.150;4.768;2023-04-24T05:08:58;0.57;;;0.30;;
16314;SDS011;8266;52.150;4.768;2023-04-24T05:11:25;0.75;;;0.32;;
16314;SDS011;8266;52.150;4.768;2023-04-24T05:13:52;0.40;;;0.40;;
16314;SDS011;8266;52.150;4.768;2023-04-24T05:16:19;0.20;;;0.20;;
16314;SDS011;8266;52.150;4.768;2023-04-24T05:18:46;1.75;;;0.47;;
16314;SDS011;8266;52.150;4.768;2023-04-24T05:21:13;1.02;;;0.70;;
16314;SDS011;8266;52.150;4.768;2023-04-24T05:23:41;2.20;;;1.42;;
16314;SDS011;8266;52.150;4.768;2023-04-24T05:26:08;4.97;;;2.47;;
16314;SDS011;8266;52.150;4.768;2023-04-24T05:28:35;3.53;;;2.08;;
16314;SDS011;8266;52.150;4.768;2023-04-24T05:31:02;3.50;;;2.30;;
16314;SDS011;8266;52.150;4.768;2023-04-24T05:33:29;4.32;;;3.20;;
16314;SDS011;8266;52.150;4.768;2023-04-24T05:35:56;8.75;;;5.55;;
16314;SDS011;8266;52.150;4.768;2023-04-24T05:38:23;10.35;;;6.47;;
16314;SDS011;8266;52.150;4.768;2023-04-24T05:40:52;7.90;;;6.05;;
16314;SDS011;8266;52.150;4.768;2023-04-24T05:43:19;8.30;;;5.72;;
16314;SDS011;8266;52.150;4.768;2023-04-24T05:45:46;9.15;;;7.13;;
16314;SDS011;8266;52.150;4.768;2023-04-24T05:48:13;8.77;;;6.20;;
16314;SDS011;8266;52.150;4.768;2023-04-24T05:50:40;7.93;;;6.57;;
16314;SDS011;8266;52.150;4.768;2023-04-24T05:53:07;12.88;;;7.95;;
16314;SDS011;8266;52.150;4.768;2023-04-24T05:55:35;9.60;;;7.13;;
16314;SDS011;8266;52.150;4.768;2023-04-24T05:58:04;10.88;;;7.35;;
16314;SDS011;8266;52.150;4.768;2023-04-24T06:00:31;11.18;;;7.97;;
16314;SDS011;8266;52.150;4.768;2023-04-24T06:02:59;11.75;;;7.25;;
16314;SDS011;8266;52.150;4.768;2023-04-24T06:05:26;10.70;;;7.38;;
16314;SDS011;8266;52.150;4.768;2023-04-24T06:07:53;12.50;;;7.00;;
16314;SDS011;8266;52.150;4.768;2023-04-24T06:10:20;11.70;;;6.85;;
16314;SDS011;8266;52.150;4.768;2023-04-24T06:12:47;13.00;;;6.80;;
16314;SDS011;8266;52.150;4.768;2023-04-24T06:15:16;10.85;;;7.13;;
16314;SDS011;8266;52.150;4.768;2023-04-24T06:17:43;10.65;;;7.03;;
16314;SDS011;8266;52.150;4.768;2023-04-24T06:20:10;11.75;;;7.30;;
16314;SDS011;8266;52.150;4.768;2023-04-24T06:22:37;12.60;;;6.85;;
16314;SDS011;8266;52.150;4.768;2023-04-24T06:25:05;10.32;;;7.32;;
16314;SDS011;8266;52.150;4.768;2023-04-24T06:27:32;10.77;;;7.57;;
16314;SDS011;8266;52.150;4.768;2023-04-24T06:30:00;12.68;;;7.00;;
16314;SDS011;8266;52.150;4.768;2023-04-24T06:32:28;11.00;;;6.18;;
16314;SDS011;8266;52.150;4.768;2023-04-24T06:34:56;13.45;;;6.75;;
16314;SDS011;8266;52.150;4.768;2023-04-24T06:37:23;15.88;;;5.88;;
16314;SDS011;8266;52.150;4.768;2023-04-24T06:39:50;14.05;;;5.85;;
16314;SDS011;8266;52.150;4.768;2023-04-24T06:42:17;14.90;;;5.60;;
16314;SDS011;8266;52.150;4.768;2023-04-24T06:44:46;12.93;;;4.78;;
16314;SDS011;8266;52.150;4.768;2023-04-24T06:47:13;10.50;;;4.97;;
16314;SDS011;8266;52.150;4.768;2023-04-24T06:49:41;15.25;;;5.10;;
16314;SDS011;8266;52.150;4.768;2023-04-24T06:52:09;13.07;;;5.72;;
16314;SDS011;8266;52.150;4.768;2023-04-24T06:54:36;17.42;;;6.47;;
16314;SDS011;8266;52.150;4.768;2023-04-24T06:57:03;15.93;;;5.32;;
16314;SDS011;8266;52.150;4.768;2023-04-24T06:59:30;15.80;;;5.90;;
16314;SDS011;8266;52.150;4.768;2023-04-24T07:01:57;17.55;;;5.43;;
16314;SDS011;8266;52.150;4.768;2023-04-24T07:04:24;13.50;;;4.38;;
16314;SDS011;8266;52.150;4.768;2023-04-24T07:06:52;11.55;;;4.10;;
16314;SDS011;8266;52.150;4.768;2023-04-24T07:09:24;13.52;;;3.80;;
16314;SDS011;8266;52.150;4.768;2023-04-24T07:11:52;16.40;;;4.72;;
16314;SDS011;8266;52.150;4.768;2023-04-24T07:14:21;14.25;;;4.68;;
16314;SDS011;8266;52.150;4.768;2023-04-24T07:16:48;10.88;;;4.22;;
16314;SDS011;8266;52.150;4.768;2023-04-24T07:19:15;15.32;;;4.65;;
16314;SDS011;8266;52.150;4.768;2023-04-24T07:21:42;11.75;;;3.88;;
16314;SDS011;8266;52.150;4.768;2023-04-24T07:24:11;10.25;;;3.55;;
16314;SDS011;8266;52.150;4.768;2023-04-24T07:26:38;13.18;;;3.60;;
16314;SDS011;8266;52.150;4.768;2023-04-24T07:29:05;11.65;;;3.40;;
16314;SDS011;8266;52.150;4.768;2023-04-24T07:31:32;11.77;;;3.33;;
16314;SDS011;8266;52.150;4.768;2023-04-24T07:33:59;15.10;;;3.53;;
16314;SDS011;8266;52.150;4.768;2023-04-24T07:36:26;12.38;;;3.17;;
16314;SDS011;8266;52.150;4.768;2023-04-24T07:38:53;9.77;;;3.05;;
16314;SDS011;8266;52.150;4.768;2023-04-24T07:41:23;11.63;;;2.90;;
16314;SDS011;8266;52.150;4.768;2023-04-24T07:43:50;11.15;;;2.30;;
16314;SDS011;8266;52.150;4.768;2023-04-24T07:46:18;8.20;;;2.72;;
16314;SDS011;8266;52.150;4.768;2023-04-24T07:48:46;15.55;;;3.10;;
16314;SDS011;8266;52.150;4.768;2023-04-24T07:51:13;7.78;;;2.42;;
16314;SDS011;8266;52.150;4.768;2023-04-24T07:53:40;9.20;;;1.98;;
16314;SDS011;8266;52.150;4.768;2023-04-24T07:56:07;8.55;;;2.40;;
16314;SDS011;8266;52.150;4.768;2023-04-24T07:58:36;8.98;;;2.80;;
16314;SDS011;8266;52.150;4.768;2023-04-24T08:01:03;8.80;;;2.20;;
16314;SDS011;8266;52.150;4.768;2023-04-24T08:03:30;11.25;;;2.83;;
16314;SDS011;8266;52.150;4.768;2023-04-24T08:05:57;8.02;;;2.55;;
16314;SDS011;8266;52.150;4.768;2023-04-24T08:08:24;6.82;;;1.95;;
16314;SDS011;8266;52.150;4.768;2023-04-24T08:10:51;7.63;;;2.10;;
16314;SDS011;8266;52.150;4.768;2023-04-24T08:13:18;13.32;;;3.20;;
16314;SDS011;8266;52.150;4.768;2023-04-24T08:15:46;9.25;;;2.47;;
16314;SDS011;8266;52.150;4.768;2023-04-24T08:18:13;7.65;;;2.58;;
16314;SDS011;8266;52.150;4.768;2023-04-24T08:20:40;12.57;;;2.83;;
16314;SDS011;8266;52.150;4.768;2023-04-24T08:23:07;10.02;;;2.40;;
16314;SDS011;8266;52.150;4.768;2023-04-24T08:25:35;8.60;;;2.72;;
16314;SDS011;8266;52.150;4.768;2023-04-24T08:28:02;7.78;;;2.05;;
16314;SDS011;8266;52.150;4.768;2023-04-24T08:30:29;7.75;;;2.30;;
16314;SDS011;8266;52.150;4.768;2023-04-24T08:32:58;6.63;;;2.05;;
16314;SDS011;8266;52.150;4.768;2023-04-24T08:35:25;5.88;;;2.42;;
16314;SDS011;8266;52.150;4.768;2023-04-24T08:37:52;8.50;;;2.00;;
16314;SDS011;8266;52.150;4.768;2023-04-24T08:40:21;7.28;;;2.22;;
16314;SDS011;8266;52.150;4.768;2023-04-24T08:42:53;4.68;;;1.80;;
16314;SDS011;8266;52.150;4.768;2023-04-24T08:45:22;5.13;;;1.73;;
16314;SDS011;8266;52.150;4.768;2023-04-24T08:47:49;6.43;;;2.05;;
16314;SDS011;8266;52.150;4.768;2023-04-24T08:50:19;8.48;;;2.33;;
16314;SDS011;8266;52.150;4.768;2023-04-24T08:52:47;5.50;;;1.92;;
16314;SDS011;8266;52.150;4.768;2023-04-24T08:55:18;5.07;;;1.67;;
16314;SDS011;8266;52.150;4.768;2023-04-24T08:57:45;6.90;;;1.85;;
16314;SDS011;8266;52.150;4.768;2023-04-24T09:00:18;4.55;;;1.70;;
16314;SDS011;8266;52.150;4.768;2023-04-24T09:02:45;4.65;;;1.40;;
16314;SDS011;8266;52.150;4.768;2023-04-24T09:05:16;5.78;;;1.90;;
16314;SDS011;8266;52.150;4.768;2023-04-24T09:07:47;3.38;;;1.33;;
16314;SDS011;8266;52.150;4.768;2023-04-24T09:10:19;21.60;;;2.53;;
16314;SDS011;8266;52.150;4.768;2023-04-24T09:12:47;9.48;;;1.67;;
16314;SDS011;8266;52.150;4.768;2023-04-24T09:15:15;4.57;;;1.80;;
16314;SDS011;8266;52.150;4.768;2023-04-24T09:17:43;6.57;;;1.75;;
16314;SDS011;8266;52.150;4.768;2023-04-24T09:20:10;5.60;;;1.70;;
16314;SDS011;8266;52.150;4.768;2023-04-24T09:22:37;5.10;;;1.20;;
16314;SDS011;8266;52.150;4.768;2023-04-24T09:25:06;5.90;;;1.85;;
16314;SDS011;8266;52.150;4.768;2023-04-24T09:27:34;4.55;;;1.30;;
16314;SDS011;8266;52.150;4.768;2023-04-24T09:30:01;3.85;;;1.27;;
16314;SDS011;8266;52.150;4.768;2023-04-24T09:32:29;2.40;;;1.00;;
16314;SDS011;8266;52.150;4.768;2023-04-24T09:35:07;6.55;;;1.42;;
16314;SDS011;8266;52.150;4.768;2023-04-24T09:37:35;4.93;;;1.48;;
16314;SDS011;8266;52.150;4.768;2023-04-24T09:40:11;2.85;;;0.93;;
16314;SDS011;8266;52.150;4.768;2023-04-24T09:42:40;4.45;;;1.40;;
16314;SDS011;8266;52.150;4.768;2023-04-24T09:45:09;2.90;;;1.20;;
16314;SDS011;8266;52.150;4.768;2023-04-24T09:47:37;8.40;;;1.00;;
16314;SDS011;8266;52.150;4.768;2023-04-24T09:50:14;4.20;;;1.00;;
16314;SDS011;8266;52.150;4.768;2023-04-24T09:52:46;4.32;;;0.95;;
16314;SDS011;8266;52.150;4.768;2023-04-24T09:55:18;4.85;;;0.98;;
16314;SDS011;8266;52.150;4.768;2023-04-24T09:57:49;5.38;;;1.00;;
16314;SDS011;8266;52.150;4.768;2023-04-24T10:00:18;4.63;;;1.27;;
16314;SDS011;8266;52.150;4.768;2023-04-24T10:02:51;4.00;;;0.93;;
16314;SDS011;8266;52.150;4.768;2023-04-24T10:05:23;4.50;;;0.90;;
16314;SDS011;8266;52.150;4.768;2023-04-24T10:07:51;6.00;;;1.27;;
16314;SDS011;8266;52.150;4.768;2023-04-24T10:10:19;3.70;;;0.95;;
16314;SDS011;8266;52.150;4.768;2023-04-24T10:12:46;3.55;;;1.20;;
16314;SDS011;8266;52.150;4.768;2023-04-24T10:15:14;2.05;;;0.70;;
16314;SDS011;8266;52.150;4.768;2023-04-24T10:17:45;3.20;;;1.05;;
16314;SDS011;8266;52.150;4.768;2023-04-24T10:20:17;4.22;;;1.17;;
16314;SDS011;8266;52.150;4.768;2023-04-24T10:22:46;3.00;;;1.00;;
16314;SDS011;8266;52.150;4.768;2023-04-24T10:25:16;2.30;;;0.50;;
16314;SDS011;8266;52.150;4.768;2023-04-24T10:27:47;2.67;;;0.60;;
16314;SDS011;8266;52.150;4.768;2023-04-24T10:30:15;3.78;;;1.02;;
16314;SDS011;8266;52.150;4.768;2023-04-24T10:32:43;2.33;;;0.60;;
16314;SDS011;8266;52.150;4.768;2023-04-24T10:35:11;3.40;;;0.93;;
16314;SDS011;8266;52.150;4.768;2023-04-24T10:37:40;5.30;;;0.70;;
16314;SDS011;8266;52.150;4.768;2023-04-24T10:40:10;2.58;;;0.60;;
16314;SDS011;8266;52.150;4.768;2023-04-24T10:42:43;2.65;;;0.85;;
16314;SDS011;8266;52.150;4.768;2023-04-24T10:45:16;5.10;;;0.80;;
16314;SDS011;8266;52.150;4.768;2023-04-24T10:47:53;3.13;;;1.00;;
16314;SDS011;8266;52.150;4.768;2023-04-24T10:50:23;6.28;;;1.10;;
16314;SDS011;8266;52.150;4.768;2023-04-24T10:52:51;4.45;;;0.95;;
16314;SDS011;8266;52.150;4.768;2023-04-24T10:58:09;4.10;;;0.75;;
16314;SDS011;8266;52.150;4.768;2023-04-24T11:00:37;3.20;;;0.70;;
16314;SDS011;8266;52.150;4.768;2023-04-24T11:03:05;1.58;;;0.30;;
16314;SDS011;8266;52.150;4.768;2023-04-24T11:05:49;1.83;;;0.35;;
16314;SDS011;8266;52.150;4.768;2023-04-24T11:08:21;1.73;;;0.32;;
16314;SDS011;8266;52.150;4.768;2023-04-24T11:10:57;1.65;;;0.43;;
16314;SDS011;8266;52.150;4.768;2023-04-24T11:16:28;2.55;;;0.50;;
16314;SDS011;8266;52.150;4.768;2023-04-24T11:19:00;2.05;;;0.60;;
16314;SDS011;8266;52.150;4.768;2023-04-24T11:21:30;2.05;;;0.52;;
16314;SDS011;8266;52.150;4.768;2023-04-24T11:23:58;4.35;;;1.20;;
16314;SDS011;8266;52.150;4.768;2023-04-24T11:26:45;4.10;;;1.02;;
16314;SDS011;8266;52.150;4.768;2023-04-24T11:29:13;5.65;;;1.67;;
16314;SDS011;8266;52.150;4.768;2023-04-24T11:31:41;7.85;;;1.30;;
16314;SDS011;8266;52.150;4.768;2023-04-24T11:34:15;3.30;;;0.95;;
16314;SDS011;8266;52.150;4.768;2023-04-24T11:36:42;4.15;;;0.95;;
16314;SDS011;8266;52.150;4.768;2023-04-24T11:39:10;4.80;;;0.90;;
16314;SDS011;8266;52.150;4.768;2023-04-24T11:41:37;3.13;;;0.98;;
16314;SDS011;8266;52.150;4.768;2023-04-24T11:44:05;5.05;;;1.10;;
16314;SDS011;8266;52.150;4.768;2023-04-24T11:46:35;6.78;;;1.70;;
16314;SDS011;8266;52.150;4.768;2023-04-24T11:49:05;2.95;;;1.25;;
16314;SDS011;8266;52.150;4.768;2023-04-24T11:51:32;4.15;;;1.23;;
16314;SDS011;8266;52.150;4.768;2023-04-24T11:54:00;5.70;;;1.40;;
16314;SDS011;8266;52.150;4.768;2023-04-24T11:56:27;6.38;;;1.10;;
16314;SDS011;8266;52.150;4.768;2023-04-24T11:58:54;7.03;;;1.17;;
16314;SDS011;8266;52.150;4.768;2023-04-24T12:01:21;6.70;;;1.60;;
16314;SDS011;8266;52.150;4.768;2023-04-24T12:03:50;5.72;;;1.58;;
16314;SDS011;8266;52.150;4.768;2023-04-24T12:06:25;4.32;;;1.38;;
16314;SDS011;8266;52.150;4.768;2023-04-24T12:08:52;3.80;;;1.27;;
16314;SDS011;8266;52.150;4.768;2023-04-24T12:11:20;6.30;;;1.77;;
16314;SDS011;8266;52.150;4.768;2023-04-24T12:13:47;8.50;;;2.05;;
16314;SDS011;8266;52.150;4.768;2023-04-24T12:16:14;4.82;;;1.77;;
16314;SDS011;8266;52.150;4.768;2023-04-24T12:18:41;7.50;;;1.80;;
16314;SDS011;8266;52.150;4.768;2023-04-24T12:21:18;6.57;;;2.13;;
16314;SDS011;8266;52.150;4.768;2023-04-24T12:23:53;5.25;;;1.77;;
16314;SDS011;8266;52.150;4.768;2023-04-24T12:26:21;5.93;;;1.95;;
16314;SDS011;8266;52.150;4.768;2023-04-24T12:28:48;7.97;;;2.22;;
16314;SDS011;8266;52.150;4.768;2023-04-24T12:31:19;7.68;;;2.33;;
16314;SDS011;8266;52.150;4.768;2023-04-24T12:33:47;14.02;;;2.65;;
16314;SDS011;8266;52.150;4.768;2023-04-24T12:36:14;8.98;;;2.47;;
16314;SDS011;8266;52.150;4.768;2023-04-24T12:38:43;8.48;;;2.50;;
16314;SDS011;8266;52.150;4.768;2023-04-24T12:41:12;10.90;;;2.67;;
16314;SDS011;8266;52.150;4.768;2023-04-24T12:43:50;9.93;;;2.58;;
16314;SDS011;8266;52.150;4.768;2023-04-24T12:46:18;8.75;;;3.00;;
16314;SDS011;8266;52.150;4.768;2023-04-24T12:48:45;8.82;;;2.67;;
16314;SDS011;8266;52.150;4.768;2023-04-24T12:51:12;8.98;;;2.15;;
16314;SDS011;8266;52.150;4.768;2023-04-24T12:53:39;6.60;;;2.10;;
16314;SDS011;8266;52.150;4.768;2023-04-24T12:56:07;9.52;;;2.55;;
16314;SDS011;8266;52.150;4.768;2023-04-24T12:58:34;9.63;;;2.55;;
16314;SDS011;8266;52.150;4.768;2023-04-24T13:01:01;8.00;;;2.20;;
16314;SDS011;8266;52.150;4.768;2023-04-24T13:03:28;7.30;;;2.38;;
16314;SDS011;8266;52.150;4.768;2023-04-24T13:05:55;8.45;;;2.53;;
16314;SDS011;8266;52.150;4.768;2023-04-24T13:08:22;9.70;;;2.90;;
16314;SDS011;8266;52.150;4.768;2023-04-24T13:10:49;8.15;;;2.50;;
16314;SDS011;8266;52.150;4.768;2023-04-24T13:13:18;8.27;;;2.17;;
16314;SDS011;8266;52.150;4.768;2023-04-24T13:15:45;11.82;;;2.65;;
16314;SDS011;8266;52.150;4.768;2023-04-24T13:18:12;7.60;;;2.00;;
16314;SDS011;8266;52.150;4.768;2023-04-24T13:20:39;5.93;;;2.20;;
16314;SDS011;8266;52.150;4.768;2023-04-24T13:23:06;6.55;;;2.10;;
16314;SDS011;8266;52.150;4.768;2023-04-24T13:25:35;4.93;;;2.20;;
16314;SDS011;8266;52.150;4.768;2023-04-24T13:28:04;7.30;;;2.85;;
16314;SDS011;8266;52.150;4.768;2023-04-24T13:30:32;8.95;;;3.13;;
16314;SDS011;8266;52.150;4.768;2023-04-24T13:32:59;8.77;;;2.40;;
16314;SDS011;8266;52.150;4.768;2023-04-24T13:35:26;9.50;;;3.05;;
16314;SDS011;8266;52.150;4.768;2023-04-24T13:37:53;13.10;;;3.10;;
16314;SDS011;8266;52.150;4.768;2023-04-24T13:40:20;11.07;;;3.60;;
16314;SDS011;8266;52.150;4.768;2023-04-24T13:42:47;7.07;;;2.88;;
16314;SDS011;8266;52.150;4.768;2023-04-24T13:45:14;7.47;;;2.70;;
16314;SDS011;8266;52.150;4.768;2023-04-24T13:47:43;11.38;;;3.33;;
16314;SDS011;8266;52.150;4.768;2023-04-24T13:50:10;5.57;;;2.47;;
16314;SDS011;8266;52.150;4.768;2023-04-24T13:52:37;7.63;;;2.25;;
16314;SDS011;8266;52.150;4.768;2023-04-24T13:55:05;9.77;;;3.05;;
16314;SDS011;8266;52.150;4.768;2023-04-24T13:57:32;5.93;;;2.65;;
16314;SDS011;8266;52.150;4.768;2023-04-24T14:00:00;8.57;;;3.17;;
16314;SDS011;8266;52.150;4.768;2023-04-24T14:02:28;7.75;;;2.60;;
16314;SDS011;8266;52.150;4.768;2023-04-24T14:04:57;12.10;;;3.72;;
16314;SDS011;8266;52.150;4.768;2023-04-24T14:07:24;9.07;;;3.38;;
16314;SDS011;8266;52.150;4.768;2023-04-24T14:09:51;9.20;;;3.55;;
16314;SDS011;8266;52.150;4.768;2023-04-24T14:12:18;7.68;;;2.70;;
16314;SDS011;8266;52.150;4.768;2023-04-24T14:14:46;10.07;;;2.53;;
16314;SDS011;8266;52.150;4.768;2023-04-24T14:17:13;7.22;;;2.17;;
16314;SDS011;8266;52.150;4.768;2023-04-24T14:19:40;7.78;;;2.70;;
16314;SDS011;8266;52.150;4.768;2023-04-24T14:22:09;9.10;;;2.83;;
16314;SDS011;8266;52.150;4.768;2023-04-24T14:24:36;8.30;;;2.60;;
16314;SDS011;8266;52.150;4.768;2023-04-24T14:27:03;9.02;;;2.92;;
16314;SDS011;8266;52.150;4.768;2023-04-24T14:29:30;8.32;;;3.20;;
16314;SDS011;8266;52.150;4.768;2023-04-24T14:31:57;11.07;;;3.13;;
16314;SDS011;8266;52.150;4.768;2023-04-24T14:34:24;11.32;;;3.20;;
16314;SDS011;8266;52.150;4.768;2023-04-24T14:36:52;6.25;;;2.63;;
16314;SDS011;8266;52.150;4.768;2023-04-24T14:39:21;11.85;;;2.80;;
16314;SDS011;8266;52.150;4.768;2023-04-24T14:41:48;16.98;;;3.85;;
16314;SDS011;8266;52.150;4.768;2023-04-24T14:44:15;9.23;;;2.90;;
16314;SDS011;8266;52.150;4.768;2023-04-24T14:46:42;10.27;;;3.67;;
16314;SDS011;8266;52.150;4.768;2023-04-24T14:49:09;8.77;;;2.90;;
16314;SDS011;8266;52.150;4.768;2023-04-24T14:51:37;11.32;;;3.00;;
16314;SDS011;8266;52.150;4.768;2023-04-24T14:54:05;13.25;;;3.55;;
16314;SDS011;8266;52.150;4.768;2023-04-24T14:56:34;8.05;;;3.13;;
16314;SDS011;8266;52.150;4.768;2023-04-24T14:59:01;8.95;;;2.63;;
16314;SDS011;8266;52.150;4.768;2023-04-24T15:01:29;9.70;;;2.65;;
16314;SDS011;8266;52.150;4.768;2023-04-24T15:03:56;9.43;;;3.33;;
16314;SDS011;8266;52.150;4.768;2023-04-24T15:06:23;8.90;;;2.78;;
16314;SDS011;8266;52.150;4.768;2023-04-24T15:08:50;7.80;;;3.08;;
16314;SDS011;8266;52.150;4.768;2023-04-24T15:11:17;8.88;;;3.05;;